Time;durP1;ratioP1;P1;durP2;ratioP2;P2;SDS_P1;SDS_P2;PMS_P1;PMS_P2;Temp;Humidity;BMP_temperature;BMP_pressure;BME280_temperature;BME280_humidity;BME280_pressure;Samples;Min_cycle;Max_cycle;Signal;HPM_P1;HPM_P2
2022/06/30 00:00:07;;;;;;;;;0.00;0.00;;;;;;;;5118225;27;45343;-72
2022/06/30 00:02:32;;;;;;;;;2.00;0.00;;;;;;;;5117918;27;45400;-71
2022/06/30 00:04:58;;;;;;;;;2.00;0.00;;;;;;;;5121830;27;45476;-71
2022/06/30 00:07:23;;;;;;;;;0.00;0.00;;;;;;;;5115415;27;46713;-72
2022/06/30 00:09:48;;;;;;;;;2.00;0.67;;;;;;;;5116118;27;45695;-72
2022/06/30 00:12:13;;;;;;;;;2.00;1.00;;;;;;;;5115704;27;45769;-72
2022/06/30 00:14:39;;;;;;;;;1.67;0.33;;;;;;;;5116787;27;45612;-72
2022/06/30 00:17:04;;;;;;;;;1.00;1.00;;;;;;;;5117537;27;46549;-70
2022/06/30 00:19:29;;;;;;;;;1.00;1.00;;;;;;;;5118745;27;45380;-69
2022/06/30 00:21:54;;;;;;;;;0.00;0.00;;;;;;;;5100146;27;47117;-71
2022/06/30 00:24:20;;;;;;;;;1.00;1.00;;;;;;;;5099184;27;45271;-71
2022/06/30 00:26:45;;;;;;;;;0.33;0.33;;;;;;;;5099066;27;46151;-70
2022/06/30 00:29:11;;;;;;;;;1.00;1.00;;;;;;;;5100893;27;45319;-70
2022/06/30 00:31:37;;;;;;;;;0.00;0.00;;;;;;;;5103015;27;45158;-71
2022/06/30 00:34:02;;;;;;;;;2.00;0.33;;;;;;;;5099081;27;45301;-71
2022/06/30 00:36:27;;;;;;;;;3.00;1.00;;;;;;;;5098437;27;47262;-72
2022/06/30 00:38:53;;;;;;;;;1.00;1.00;;;;;;;;5098660;27;45371;-70
2022/06/30 00:41:18;;;;;;;;;1.00;1.00;;;;;;;;5098702;27;45308;-70
2022/06/30 00:43:44;;;;;;;;;0.00;0.00;;;;;;;;5113733;27;45430;-70
2022/06/30 00:46:09;;;;;;;;;0.33;0.00;;;;;;;;5098514;27;47205;-70
2022/06/30 00:48:34;;;;;;;;;1.00;1.00;;;;;;;;5098668;27;45428;-71
2022/06/30 00:51:00;;;;;;;;;1.33;1.33;;;;;;;;5098526;27;45207;-71
2022/06/30 00:53:25;;;;;;;;;0.00;0.00;;;;;;;;5098701;27;45370;-71
2022/06/30 00:55:51;;;;;;;;;0.33;0.00;;;;;;;;5098255;27;46502;-71
2022/06/30 00:58:19;;;;;;;;;0.67;0.00;;;;;;;;5102947;27;45331;-71
2022/06/30 01:00:45;;;;;;;;;3.00;0.00;;;;;;;;5118869;27;45504;-70
2022/06/30 01:03:11;;;;;;;;;0.33;0.33;;;;;;;;5117685;27;45600;-71
2022/06/30 01:05:36;;;;;;;;;0.00;0.00;;;;;;;;5116800;27;46443;-70
2022/06/30 01:08:03;;;;;;;;;1.00;1.00;;;;;;;;5118852;27;45202;-71
2022/06/30 01:13:11;;;;;;;;;1.00;1.00;;;;;;;;5118689;27;45167;-70
2022/06/30 01:15:37;;;;;;;;;0.00;0.00;;;;;;;;5110865;27;45470;-70
2022/06/30 01:18:02;;;;;;;;;0.00;0.00;;;;;;;;5098251;27;45232;-71
2022/06/30 01:20:29;;;;;;;;;1.00;1.00;;;;;;;;5097957;27;45327;-71
2022/06/30 01:22:55;;;;;;;;;0.33;0.33;;;;;;;;5098621;27;45432;-71
2022/06/30 01:25:20;;;;;;;;;2.67;0.00;;;;;;;;5097971;27;46272;-70
2022/06/30 01:27:45;;;;;;;;;3.67;1.00;;;;;;;;5098295;27;45565;-70
2022/06/30 01:30:11;;;;;;;;;1.00;1.00;;;;;;;;5105881;27;45353;-71
2022/06/30 01:32:36;;;;;;;;;1.00;1.00;;;;;;;;5097934;27;45445;-72
2022/06/30 01:35:01;;;;;;;;;1.00;0.67;;;;;;;;5108129;27;46306;-72
2022/06/30 01:37:27;;;;;;;;;1.00;1.00;;;;;;;;5118459;27;45342;-72
2022/06/30 01:39:52;;;;;;;;;0.00;0.00;;;;;;;;5118726;27;45350;-71
2022/06/30 01:42:17;;;;;;;;;1.00;1.00;;;;;;;;5118710;27;45583;-71
2022/06/30 01:44:43;;;;;;;;;1.00;1.00;;;;;;;;5118218;27;45405;-71
2022/06/30 01:47:09;;;;;;;;;1.00;1.00;;;;;;;;5118493;27;45378;-72
2022/06/30 01:49:35;;;;;;;;;0.67;0.67;;;;;;;;5118029;27;45309;-71
2022/06/30 01:52:00;;;;;;;;;2.00;1.00;;;;;;;;5118444;27;45424;-71
2022/06/30 01:54:25;;;;;;;;;1.00;1.00;;;;;;;;5117875;27;47413;-71
2022/06/30 01:56:50;;;;;;;;;2.67;2.00;;;;;;;;5101368;27;45375;-71
2022/06/30 01:59:15;;;;;;;;;3.00;1.00;;;;;;;;5105913;27;45448;-71
2022/06/30 02:01:41;;;;;;;;;1.00;1.00;;;;;;;;5118638;27;45367;-71
2022/06/30 02:06:50;;;;;;;;;5.00;2.00;;;;;;;;5118059;27;45314;-71
2022/06/30 02:09:15;;;;;;;;;5.33;5.33;;;;;;;;5117800;27;45327;-71
2022/06/30 02:11:40;;;;;;;;;4.00;3.00;;;;;;;;5118316;27;45417;-72
2022/06/30 02:14:06;;;;;;;;;3.00;2.67;;;;;;;;5117961;27;46307;-72
2022/06/30 02:16:31;;;;;;;;;4.00;4.00;;;;;;;;5118026;27;45426;-71
2022/06/30 02:18:56;;;;;;;;;6.67;5.00;;;;;;;;5118307;27;45318;-71
2022/06/30 02:21:22;;;;;;;;;6.33;4.67;;;;;;;;5101432;27;45141;-71
2022/06/30 02:23:47;;;;;;;;;8.00;6.67;;;;;;;;5100391;27;46166;-71
2022/06/30 02:26:12;;;;;;;;;12.67;10.33;;;;;;;;5100928;27;45414;-71
2022/06/30 02:28:37;;;;;;;;;12.00;10.67;;;;;;;;5102700;27;45355;-72
2022/06/30 02:31:03;;;;;;;;;17.67;15.00;;;;;;;;5107520;27;45497;-72
2022/06/30 02:33:28;;;;;;;;;10.33;9.67;;;;;;;;5100599;27;46327;-72
2022/06/30 02:35:53;;;;;;;;;12.33;8.00;;;;;;;;5100803;27;45309;-72
2022/06/30 02:38:18;;;;;;;;;14.33;13.00;;;;;;;;5100790;27;45264;-72
2022/06/30 02:40:44;;;;;;;;;19.67;13.67;;;;;;;;5113374;27;45391;-72
2022/06/30 02:43:09;;;;;;;;;16.67;13.00;;;;;;;;5120708;27;45425;-71
2022/06/30 02:45:34;;;;;;;;;16.00;14.67;;;;;;;;5120020;27;45406;-71
2022/06/30 02:47:59;;;;;;;;;9.67;9.67;;;;;;;;5100889;27;45287;-71
2022/06/30 02:50:25;;;;;;;;;8.00;6.00;;;;;;;;5100657;27;45261;-71
2022/06/30 02:52:50;;;;;;;;;5.00;5.00;;;;;;;;5100131;27;46330;-71
2022/06/30 02:55:15;;;;;;;;;4.00;4.00;;;;;;;;5100270;27;45359;-72
2022/06/30 02:57:40;;;;;;;;;3.00;3.00;;;;;;;;5100537;27;45223;-70
2022/06/30 03:00:07;;;;;;;;;5.00;2.00;;;;;;;;5100317;27;45296;-70
2022/06/30 03:02:32;;;;;;;;;3.67;2.00;;;;;;;;5100268;27;47180;-71
2022/06/30 03:04:57;;;;;;;;;2.00;2.00;;;;;;;;5100081;27;45391;-71
2022/06/30 03:07:23;;;;;;;;;1.00;1.00;;;;;;;;5100330;27;45268;-72
2022/06/30 03:09:48;;;;;;;;;2.00;1.00;;;;;;;;5100456;27;45307;-72
2022/06/30 03:12:13;;;;;;;;;1.33;1.33;;;;;;;;5099865;27;46333;-72
2022/06/30 03:14:38;;;;;;;;;1.67;1.67;;;;;;;;5107595;27;45397;-71
2022/06/30 03:17:04;;;;;;;;;1.00;1.00;;;;;;;;5120851;27;45340;-71
2022/06/30 03:19:29;;;;;;;;;0.33;0.00;;;;;;;;5120587;27;45369;-72
2022/06/30 03:21:54;;;;;;;;;2.00;2.00;;;;;;;;5120298;27;45635;-72
2022/06/30 03:24:20;;;;;;;;;1.33;1.33;;;;;;;;5120528;27;45290;-72
2022/06/30 03:26:46;;;;;;;;;1.00;1.00;;;;;;;;5120773;27;45450;-72
2022/06/30 03:29:11;;;;;;;;;1.00;1.00;;;;;;;;5113328;27;46880;-72
2022/06/30 03:31:37;;;;;;;;;2.33;1.00;;;;;;;;5120215;27;46519;-72
2022/06/30 03:34:03;;;;;;;;;2.33;1.00;;;;;;;;5104296;27;45466;-71
2022/06/30 03:36:28;;;;;;;;;0.00;0.00;;;;;;;;5099963;27;45294;-71
2022/06/30 03:38:53;;;;;;;;;0.00;0.00;;;;;;;;5100099;27;45404;-71
2022/06/30 03:41:19;;;;;;;;;3.00;1.00;;;;;;;;5112820;27;46152;-71
2022/06/30 03:43:44;;;;;;;;;1.67;1.67;;;;;;;;5120055;27;45424;-71
2022/06/30 03:46:09;;;;;;;;;3.00;1.00;;;;;;;;5120405;27;45227;-71
2022/06/30 03:48:35;;;;;;;;;1.00;1.00;;;;;;;;5120271;27;45361;-71
2022/06/30 03:51:01;;;;;;;;;1.00;1.00;;;;;;;;5119837;27;46110;-72
2022/06/30 03:53:27;;;;;;;;;7.33;6.00;;;;;;;;5120058;27;45401;-72
2022/06/30 03:55:52;;;;;;;;;1.00;1.00;;;;;;;;5120045;27;45321;-73
2022/06/30 03:58:17;;;;;;;;;3.00;1.00;;;;;;;;5120237;27;45285;-72
2022/06/30 04:00:42;;;;;;;;;1.00;1.00;;;;;;;;5119845;27;45313;-72
2022/06/30 04:03:08;;;;;;;;;2.33;1.00;;;;;;;;5119399;27;45412;-72
2022/06/30 04:05:33;;;;;;;;;1.00;1.00;;;;;;;;5120236;27;45361;-72
2022/06/30 04:07:58;;;;;;;;;1.00;1.00;;;;;;;;5119780;27;45368;-72
2022/06/30 04:10:23;;;;;;;;;2.00;2.00;;;;;;;;5119570;27;45431;-72
2022/06/30 04:12:49;;;;;;;;;4.67;2.00;;;;;;;;5109738;27;45287;-72
2022/06/30 04:15:14;;;;;;;;;1.33;1.33;;;;;;;;5099185;27;45304;-72
2022/06/30 04:17:39;;;;;;;;;3.00;1.00;;;;;;;;5099468;27;45350;-72
2022/06/30 04:20:06;;;;;;;;;3.00;2.00;;;;;;;;5098770;27;45522;-72
2022/06/30 04:22:31;;;;;;;;;4.00;2.00;;;;;;;;5101173;27;45265;-71
2022/06/30 04:24:57;;;;;;;;;2.67;1.33;;;;;;;;5099931;27;45209;-72
2022/06/30 04:27:22;;;;;;;;;1.00;1.00;;;;;;;;5099160;27;45539;-72
2022/06/30 04:29:47;;;;;;;;;2.67;2.67;;;;;;;;5098991;27;46167;-72
2022/06/30 04:34:57;;;;;;;;;3.00;2.00;;;;;;;;5098934;27;45222;-72
2022/06/30 04:37:22;;;;;;;;;4.00;4.00;;;;;;;;5102631;27;45339;-72
2022/06/30 04:39:47;;;;;;;;;2.33;1.00;;;;;;;;5118922;27;45527;-72
2022/06/30 04:42:12;;;;;;;;;2.67;2.00;;;;;;;;5118543;27;45212;-72
2022/06/30 04:44:37;;;;;;;;;6.00;4.00;;;;;;;;5108371;27;45293;-72
2022/06/30 04:47:03;;;;;;;;;2.00;2.00;;;;;;;;5132199;27;45471;-72
2022/06/30 04:49:28;;;;;;;;;3.00;3.00;;;;;;;;5130868;27;45305;-72
2022/06/30 04:51:53;;;;;;;;;4.33;2.00;;;;;;;;5118426;27;46029;-72
2022/06/30 04:54:19;;;;;;;;;3.00;3.00;;;;;;;;5118788;27;45384;-71
2022/06/30 04:56:44;;;;;;;;;4.33;2.67;;;;;;;;5119113;27;45285;-72
2022/06/30 04:59:09;;;;;;;;;4.33;2.00;;;;;;;;5118367;27;46230;-71
2022/06/30 05:01:34;;;;;;;;;5.00;3.00;;;;;;;;5118787;27;45417;-71
2022/06/30 05:04:00;;;;;;;;;3.00;3.00;;;;;;;;5117672;27;45290;-71
2022/06/30 05:06:25;;;;;;;;;4.00;4.00;;;;;;;;5118782;27;45209;-72
2022/06/30 05:08:50;;;;;;;;;7.67;4.00;;;;;;;;5118350;27;45414;-72
2022/06/30 05:11:15;;;;;;;;;8.67;8.00;;;;;;;;5118211;27;45247;-72
2022/06/30 05:13:41;;;;;;;;;13.67;10.33;;;;;;;;5118353;27;45432;-72
2022/06/30 05:16:06;;;;;;;;;4.67;4.00;;;;;;;;5118662;27;45907;-72
2022/06/30 05:18:31;;;;;;;;;8.00;5.00;;;;;;;;5117648;27;47154;-72
2022/06/30 05:20:56;;;;;;;;;9.33;9.33;;;;;;;;5118621;27;45394;-71
2022/06/30 05:23:22;;;;;;;;;7.67;6.67;;;;;;;;5107132;27;45401;-72
2022/06/30 05:28:32;;;;;;;;;4.33;4.33;;;;;;;;5100267;27;45728;-72
2022/06/30 05:30:57;;;;;;;;;7.00;3.67;;;;;;;;5107950;27;45451;-72
2022/06/30 05:33:23;;;;;;;;;6.00;4.00;;;;;;;;5097951;27;45793;-72
2022/06/30 05:35:49;;;;;;;;;3.33;3.33;;;;;;;;5098222;27;45507;-72
2022/06/30 05:38:14;;;;;;;;;6.00;4.00;;;;;;;;5110320;27;45698;-71
2022/06/30 05:40:39;;;;;;;;;3.33;3.33;;;;;;;;5117868;27;45335;-72
2022/06/30 05:43:05;;;;;;;;;5.00;3.00;;;;;;;;5117476;27;45230;-71
2022/06/30 05:45:30;;;;;;;;;3.00;3.00;;;;;;;;5118468;27;45397;-72
2022/06/30 05:47:55;;;;;;;;;4.00;4.00;;;;;;;;5118078;27;46709;-72
2022/06/30 05:50:21;;;;;;;;;4.00;2.00;;;;;;;;5118112;27;45393;-72
2022/06/30 05:52:47;;;;;;;;;5.33;4.00;;;;;;;;5118141;27;45382;-71
2022/06/30 05:55:12;;;;;;;;;6.00;5.00;;;;;;;;5118347;27;45480;-72
2022/06/30 05:57:50;;;;;;;;;5.67;3.67;;;;;;;;5108759;27;45415;-71
2022/06/30 06:00:17;;;;;;;;;4.33;3.67;;;;;;;;5100783;27;45303;-72
2022/06/30 06:02:42;;;;;;;;;1.00;1.00;;;;;;;;5101002;27;45367;-72
2022/06/30 06:05:07;;;;;;;;;6.00;6.00;;;;;;;;5101153;27;45370;-73
2022/06/30 06:07:32;;;;;;;;;2.00;2.00;;;;;;;;5100893;27;45598;-72
2022/06/30 06:09:57;;;;;;;;;4.67;3.00;;;;;;;;5100634;27;45916;-71
2022/06/30 06:12:23;;;;;;;;;2.67;2.00;;;;;;;;5100937;27;45683;-72
2022/06/30 06:14:48;;;;;;;;;6.00;3.67;;;;;;;;5101065;27;45681;-71
2022/06/30 06:17:13;;;;;;;;;5.33;4.00;;;;;;;;5101926;27;45484;-71
2022/06/30 06:19:38;;;;;;;;;6.00;3.00;;;;;;;;5100566;27;45505;-72
2022/06/30 06:22:04;;;;;;;;;7.00;5.33;;;;;;;;5100726;27;45322;-73
2022/06/30 06:24:29;;;;;;;;;4.67;3.33;;;;;;;;5100803;27;45470;-73
2022/06/30 06:26:54;;;;;;;;;8.00;5.00;;;;;;;;5100791;27;45403;-72
2022/06/30 06:29:20;;;;;;;;;5.00;4.00;;;;;;;;5100872;27;45330;-72
2022/06/30 06:31:45;;;;;;;;;8.00;6.33;;;;;;;;5100693;27;45374;-72
2022/06/30 06:34:10;;;;;;;;;5.00;5.00;;;;;;;;5107348;27;45383;-72
2022/06/30 06:36:36;;;;;;;;;10.67;7.00;;;;;;;;5121222;27;46460;-72
2022/06/30 06:39:01;;;;;;;;;7.00;7.00;;;;;;;;5121005;27;45456;-72
2022/06/30 06:41:26;;;;;;;;;6.67;4.33;;;;;;;;5121308;27;45318;-72
2022/06/30 06:43:52;;;;;;;;;3.33;2.67;;;;;;;;5121299;27;45394;-72
2022/06/30 06:46:17;;;;;;;;;4.67;3.67;;;;;;;;5120258;27;47139;-72
2022/06/30 06:48:43;;;;;;;;;5.67;5.00;;;;;;;;5121177;27;45337;-72
2022/06/30 06:51:08;;;;;;;;;7.00;7.00;;;;;;;;5121019;27;45310;-72
2022/06/30 06:53:34;;;;;;;;;8.67;5.67;;;;;;;;5120324;27;45397;-72
2022/06/30 06:55:59;;;;;;;;;6.00;5.00;;;;;;;;5120975;27;46470;-72
2022/06/30 06:58:24;;;;;;;;;5.00;5.00;;;;;;;;5120997;27;45303;-71
2022/06/30 07:00:52;;;;;;;;;4.00;4.00;;;;;;;;5114154;27;45406;-71
2022/06/30 07:03:18;;;;;;;;;3.00;3.00;;;;;;;;5100468;27;45252;-72
2022/06/30 07:05:43;;;;;;;;;4.00;3.00;;;;;;;;5100212;27;45366;-72
2022/06/30 07:08:08;;;;;;;;;4.00;4.00;;;;;;;;5099877;27;45363;-73
2022/06/30 07:10:34;;;;;;;;;2.33;2.33;;;;;;;;5097988;27;45676;-72
2022/06/30 07:12:59;;;;;;;;;3.67;2.00;;;;;;;;5100378;27;45368;-72
2022/06/30 07:15:24;;;;;;;;;4.33;3.67;;;;;;;;5100038;27;47558;-72
2022/06/30 07:17:50;;;;;;;;;7.67;7.33;;;;;;;;5101404;27;45338;-72
2022/06/30 07:20:15;;;;;;;;;4.33;4.33;;;;;;;;5100084;27;45441;-73
2022/06/30 07:22:40;;;;;;;;;4.00;4.00;;;;;;;;5100239;27;45479;-72
2022/06/30 07:25:06;;;;;;;;;5.67;4.00;;;;;;;;5104735;27;46355;-72
2022/06/30 07:27:32;;;;;;;;;3.33;2.33;;;;;;;;5120553;27;45873;-72
2022/06/30 07:29:57;;;;;;;;;5.00;3.67;;;;;;;;5120892;27;45301;-72
2022/06/30 07:32:23;;;;;;;;;7.00;6.00;;;;;;;;5100473;27;45553;-72
2022/06/30 07:34:48;;;;;;;;;2.00;2.00;;;;;;;;5099600;27;46065;-72
2022/06/30 07:37:13;;;;;;;;;5.33;4.00;;;;;;;;5100001;27;45307;-72
2022/06/30 07:39:38;;;;;;;;;3.00;3.00;;;;;;;;5099711;27;45294;-72
2022/06/30 07:42:04;;;;;;;;;2.00;2.00;;;;;;;;5100058;27;45419;-73
2022/06/30 07:44:29;;;;;;;;;3.33;3.00;;;;;;;;5099388;27;47044;-72
2022/06/30 07:46:55;;;;;;;;;5.00;4.00;;;;;;;;5102882;27;45224;-72
2022/06/30 07:49:21;;;;;;;;;10.33;4.00;;;;;;;;5120386;27;45333;-70
2022/06/30 07:51:46;;;;;;;;;4.33;4.33;;;;;;;;5119678;27;45535;-71
2022/06/30 07:54:11;;;;;;;;;7.33;7.00;;;;;;;;5122747;27;46105;-72
2022/06/30 07:56:37;;;;;;;;;6.33;4.33;;;;;;;;5106735;27;45358;-71
2022/06/30 07:59:02;;;;;;;;;8.33;8.33;;;;;;;;5099443;27;45673;-70
2022/06/30 08:01:28;;;;;;;;;7.00;7.00;;;;;;;;5100947;27;45260;-71
2022/06/30 08:03:53;;;;;;;;;10.67;7.33;;;;;;;;5117428;27;46097;-71
2022/06/30 08:06:18;;;;;;;;;7.00;7.00;;;;;;;;5119992;27;45310;-71
2022/06/30 08:08:44;;;;;;;;;7.33;7.33;;;;;;;;5123117;27;45473;-72
2022/06/30 08:11:10;;;;;;;;;7.33;6.67;;;;;;;;5119336;27;45687;-72
2022/06/30 08:13:35;;;;;;;;;9.33;6.00;;;;;;;;5119406;27;46449;-72
2022/06/30 08:16:00;;;;;;;;;6.00;6.00;;;;;;;;5108971;27;45310;-71
2022/06/30 08:18:26;;;;;;;;;7.33;7.33;;;;;;;;5099284;27;45282;-72
2022/06/30 08:20:51;;;;;;;;;6.67;5.00;;;;;;;;5099776;27;45426;-72
2022/06/30 08:23:16;;;;;;;;;5.00;5.00;;;;;;;;5098915;27;46905;-72
2022/06/30 08:25:41;;;;;;;;;4.67;3.33;;;;;;;;5098794;27;45344;-72
2022/06/30 08:28:08;;;;;;;;;4.33;3.33;;;;;;;;5107651;27;45450;-71
2022/06/30 08:30:33;;;;;;;;;5.67;5.00;;;;;;;;5108461;27;45152;-71
2022/06/30 08:32:58;;;;;;;;;3.67;3.67;;;;;;;;5117846;27;46494;-72
2022/06/30 08:35:24;;;;;;;;;5.67;4.00;;;;;;;;5117069;27;45435;-72
2022/06/30 08:37:49;;;;;;;;;5.00;4.00;;;;;;;;5118837;27;45424;-72
2022/06/30 08:42:59;;;;;;;;;4.67;3.67;;;;;;;;5115400;27;45823;-70
2022/06/30 08:45:27;;;;;;;;;5.33;5.00;;;;;;;;5108332;27;45516;-71
2022/06/30 08:47:53;;;;;;;;;9.67;6.00;;;;;;;;5098016;27;45466;-70
2022/06/30 08:50:18;;;;;;;;;5.00;4.00;;;;;;;;5098186;27;45445;-72
2022/06/30 08:52:54;;;;;;;;;3.00;3.00;;;;;;;;5097636;27;46281;-72
2022/06/30 08:55:30;;;;;;;;;7.00;4.00;;;;;;;;5111068;27;45471;-71
2022/06/30 08:57:57;;;;;;;;;7.67;4.33;;;;;;;;5131711;27;45510;-72
2022/06/30 09:00:23;;;;;;;;;4.00;4.00;;;;;;;;5131338;27;45369;-72
2022/06/30 09:02:48;;;;;;;;;5.00;3.33;;;;;;;;5117626;27;46555;-72
2022/06/30 09:05:14;;;;;;;;;4.00;4.00;;;;;;;;5118253;27;45569;-71
2022/06/30 09:07:39;;;;;;;;;2.33;1.00;;;;;;;;5112808;27;45474;-71
2022/06/30 09:10:05;;;;;;;;;6.00;3.33;;;;;;;;5101765;27;45785;-71
2022/06/30 09:12:31;;;;;;;;;5.33;4.00;;;;;;;;5118162;27;45436;-73
2022/06/30 09:14:56;;;;;;;;;4.00;4.00;;;;;;;;5118028;27;45408;-73
2022/06/30 09:17:23;;;;;;;;;4.00;4.00;;;;;;;;5107316;27;45369;-71
2022/06/30 09:19:51;;;;;;;;;4.00;4.00;;;;;;;;5105348;27;45547;-71
2022/06/30 09:22:16;;;;;;;;;6.33;3.67;;;;;;;;5117920;27;45727;-71
2022/06/30 09:24:42;;;;;;;;;5.33;5.33;;;;;;;;5108585;27;45536;-71
2022/06/30 09:27:11;;;;;;;;;6.00;6.00;;;;;;;;5101571;27;45472;-71
2022/06/30 09:29:48;;;;;;;;;3.33;3.33;;;;;;;;5110212;27;45555;-70
2022/06/30 09:32:14;;;;;;;;;3.67;3.00;;;;;;;;5116610;27;45390;-71
2022/06/30 09:34:40;;;;;;;;;3.67;3.67;;;;;;;;5110921;27;45427;-71
2022/06/30 09:37:14;;;;;;;;;2.00;2.00;;;;;;;;5097525;27;45486;-70
2022/06/30 09:39:43;;;;;;;;;19.33;18.00;;;;;;;;5097486;27;45411;-70
2022/06/30 09:42:09;;;;;;;;;6.00;6.00;;;;;;;;5096914;27;47196;-71
2022/06/30 09:44:35;;;;;;;;;7.00;7.00;;;;;;;;5099177;27;45403;-72
2022/06/30 09:47:01;;;;;;;;;21.00;21.00;;;;;;;;5113314;27;45349;-72
2022/06/30 09:49:33;;;;;;;;;9.33;8.00;;;;;;;;5118055;27;45565;-72
2022/06/30 09:51:59;;;;;;;;;5.33;4.00;;;;;;;;5117611;27;47464;-70
2022/06/30 09:54:26;;;;;;;;;8.33;6.33;;;;;;;;5115470;27;45465;-70
2022/06/30 09:57:00;;;;;;;;;5.00;3.00;;;;;;;;5100002;27;45574;-67
2022/06/30 09:59:25;;;;;;;;;5.67;3.33;;;;;;;;5099904;27;45447;-71
2022/06/30 10:01:52;;;;;;;;;7.67;6.67;;;;;;;;5113061;27;47197;-72
2022/06/30 10:04:17;;;;;;;;;5.00;5.00;;;;;;;;5109321;27;45410;-72
2022/06/30 10:06:42;;;;;;;;;4.00;2.67;;;;;;;;5128410;27;45334;-75
2022/06/30 10:09:09;;;;;;;;;9.00;6.00;;;;;;;;5131414;27;45407;-70
2022/06/30 10:11:34;;;;;;;;;4.33;4.00;;;;;;;;5122511;27;45619;-74
2022/06/30 10:13:59;;;;;;;;;6.00;6.00;;;;;;;;5118373;27;45345;-75
2022/06/30 10:16:25;;;;;;;;;4.33;4.33;;;;;;;;5130392;27;45356;-69
2022/06/30 10:18:52;;;;;;;;;4.67;4.00;;;;;;;;5118674;27;45543;-72
2022/06/30 10:21:20;;;;;;;;;8.00;5.00;;;;;;;;5117854;27;47287;-76
2022/06/30 10:23:45;;;;;;;;;11.00;7.33;;;;;;;;5119127;27;45221;-72
2022/06/30 10:27:12;;;;;;;;;14.00;12.00;;;;;;;;5117994;27;45553;-72
2022/06/30 10:28:56;;;;;;;;;6.33;5.00;;;;;;;;5129934;27;45491;-71
2022/06/30 10:31:26;;;;;;;;;4.67;4.00;;;;;;;;5128599;27;46662;-69
2022/06/30 10:34:10;;;;;;;;;6.67;6.67;;;;;;;;5118019;27;45378;-70
2022/06/30 10:36:42;;;;;;;;;4.67;4.00;;;;;;;;5117659;27;45435;-72
2022/06/30 10:39:11;;;;;;;;;21.33;17.67;;;;;;;;5128921;27;45482;-77
2022/06/30 10:41:46;;;;;;;;;5.33;3.00;;;;;;;;5115156;27;45530;-72
2022/06/30 10:44:15;;;;;;;;;9.67;4.67;;;;;;;;5113356;27;45469;-79
2022/06/30 10:47:02;;;;;;;;;3.00;3.00;;;;;;;;5139515;27;45426;-72
2022/06/30 10:49:28;;;;;;;;;4.00;2.00;;;;;;;;5141221;27;45361;-74
2022/06/30 10:51:57;;;;;;;;;4.67;4.67;;;;;;;;5141451;27;46196;-69
2022/06/30 10:54:31;;;;;;;;;3.00;3.00;;;;;;;;5125995;27;45394;-69
2022/06/30 10:56:57;;;;;;;;;2.33;2.33;;;;;;;;5109222;27;45288;-73
2022/06/30 10:59:34;;;;;;;;;2.00;2.00;;;;;;;;5123984;27;45460;-75
2022/06/30 11:02:12;;;;;;;;;3.33;2.00;;;;;;;;5120684;27;47227;-70
2022/06/30 11:04:38;;;;;;;;;3.00;2.00;;;;;;;;5120221;27;45526;-74
2022/06/30 11:07:06;;;;;;;;;3.67;3.00;;;;;;;;5122613;27;45543;-69
2022/06/30 11:09:43;;;;;;;;;2.00;2.00;;;;;;;;5124097;27;45503;-71
2022/06/30 11:12:09;;;;;;;;;2.00;2.00;;;;;;;;5117075;27;46549;-71
2022/06/30 11:14:34;;;;;;;;;11.00;11.00;;;;;;;;5119838;27;45347;-74
2022/06/30 11:17:00;;;;;;;;;13.00;9.33;;;;;;;;5119803;27;45529;-78
2022/06/30 11:19:27;;;;;;;;;1.00;1.00;;;;;;;;5120043;27;45500;-74
2022/06/30 11:21:52;;;;;;;;;4.00;2.00;;;;;;;;5120251;27;46526;-74
2022/06/30 11:24:21;;;;;;;;;2.33;2.33;;;;;;;;5119607;27;45469;-68
2022/06/30 11:29:31;;;;;;;;;1.00;1.00;;;;;;;;5122044;27;45655;-71
2022/06/30 11:32:00;;;;;;;;;4.00;2.00;;;;;;;;5141140;27;46452;-77
2022/06/30 11:34:25;;;;;;;;;2.00;2.00;;;;;;;;5141559;27;45250;-78
2022/06/30 11:36:51;;;;;;;;;4.00;1.00;;;;;;;;5129370;27;45283;-79
2022/06/30 11:39:18;;;;;;;;;3.00;1.00;;;;;;;;5121088;27;45455;-77
2022/06/30 11:41:56;;;;;;;;;2.67;2.67;;;;;;;;5120195;27;46637;-78
2022/06/30 11:44:23;;;;;;;;;3.67;3.67;;;;;;;;5122808;27;45390;-78
2022/06/30 11:46:49;;;;;;;;;2.67;0.00;;;;;;;;5120728;27;45333;-79
2022/06/30 11:49:15;;;;;;;;;1.00;1.00;;;;;;;;5117149;27;45534;-71
2022/06/30 11:51:41;;;;;;;;;5.00;5.00;;;;;;;;5119370;27;45626;-73
2022/06/30 11:54:07;;;;;;;;;6.00;3.00;;;;;;;;5126498;27;45455;-82
2022/06/30 11:56:53;;;;;;;;;2.00;2.00;;;;;;;;5119109;27;45244;-68
2022/06/30 11:59:18;;;;;;;;;1.00;1.00;;;;;;;;5117785;27;45459;-72
2022/06/30 12:02:03;;;;;;;;;1.00;1.00;;;;;;;;5119413;27;46571;-73
2022/06/30 12:04:28;;;;;;;;;2.00;0.67;;;;;;;;5119742;27;45394;-74
2022/06/30 12:06:54;;;;;;;;;0.33;0.33;;;;;;;;5119670;27;45726;-76
2022/06/30 12:09:19;;;;;;;;;1.00;1.00;;;;;;;;5119971;27;45294;-76
2022/06/30 12:11:46;;;;;;;;;0.00;0.00;;;;;;;;5118285;27;46325;-80
2022/06/30 12:14:11;;;;;;;;;8.67;7.33;;;;;;;;5119568;27;45450;-74
2022/06/30 12:16:37;;;;;;;;;2.33;2.00;;;;;;;;5119687;27;45594;-70
2022/06/30 12:19:02;;;;;;;;;1.67;0.33;;;;;;;;5119076;27;45327;-74
2022/06/30 12:21:28;;;;;;;;;5.33;1.67;;;;;;;;5118827;27;45720;-79
2022/06/30 12:23:53;;;;;;;;;1.67;1.00;;;;;;;;5119462;27;45456;-76
2022/06/30 12:26:18;;;;;;;;;2.67;1.00;;;;;;;;5102261;27;45311;-74
2022/06/30 12:28:48;;;;;;;;;3.33;2.00;;;;;;;;5119396;27;45396;-80
2022/06/30 12:31:23;;;;;;;;;8.33;8.33;;;;;;;;5117815;27;47682;-78
2022/06/30 12:33:48;;;;;;;;;2.67;2.00;;;;;;;;5118455;27;45534;-79
2022/06/30 12:36:15;;;;;;;;;3.00;2.00;;;;;;;;5114754;27;45325;-79
2022/06/30 12:38:40;;;;;;;;;5.67;4.67;;;;;;;;5123142;27;45511;-75
2022/06/30 12:41:08;;;;;;;;;2.00;1.00;;;;;;;;5117126;27;45530;-76
2022/06/30 12:44:03;;;;;;;;;1.33;1.33;;;;;;;;5116743;27;45487;-75
2022/06/30 12:46:37;;;;;;;;;3.00;2.33;;;;;;;;5063329;28;45470;-75
2022/06/30 12:49:02;;;;;;;;;1.00;1.00;;;;;;;;5054326;28;45467;-77
2022/06/30 12:51:27;;;;;;;;;4.33;2.00;;;;;;;;5056407;28;46197;-75
2022/06/30 12:54:19;;;;;;;;;1.67;1.67;;;;;;;;5056093;28;45434;-74
2022/06/30 12:56:50;;;;;;;;;3.33;2.00;;;;;;;;5054756;28;45682;-77
2022/06/30 12:59:16;;;;;;;;;3.00;1.67;;;;;;;;5056713;28;45267;-78
2022/06/30 13:01:51;;;;;;;;;1.00;1.00;;;;;;;;5057282;28;45276;-76
2022/06/30 13:04:16;;;;;;;;;3.33;3.33;;;;;;;;5055312;28;45214;-77
2022/06/30 13:06:42;;;;;;;;;4.67;4.67;;;;;;;;5053792;28;45414;-78
2022/06/30 13:09:08;;;;;;;;;3.00;3.00;;;;;;;;5055139;28;45465;-78
2022/06/30 13:11:35;;;;;;;;;4.33;4.33;;;;;;;;5054358;28;47319;-78
2022/06/30 13:14:00;;;;;;;;;7.67;5.00;;;;;;;;5053656;28;45573;-77
2022/06/30 13:16:27;;;;;;;;;4.33;4.33;;;;;;;;5055647;28;45399;-81
2022/06/30 13:18:53;;;;;;;;;3.00;3.00;;;;;;;;5066354;28;45479;-82
2022/06/30 13:21:19;;;;;;;;;3.00;1.67;;;;;;;;5038464;28;46597;-75
2022/06/30 13:23:45;;;;;;;;;4.67;2.00;;;;;;;;5116774;27;45444;-81
2022/06/30 13:26:11;;;;;;;;;2.00;2.00;;;;;;;;5118650;27;45582;-77
2022/06/30 13:28:36;;;;;;;;;6.00;3.00;;;;;;;;5118392;27;45291;-81
2022/06/30 13:31:01;;;;;;;;;7.67;6.00;;;;;;;;5116636;27;46334;-78
2022/06/30 13:33:27;;;;;;;;;2.33;2.33;;;;;;;;5116707;27;46346;-78
2022/06/30 13:35:52;;;;;;;;;3.33;1.00;;;;;;;;5120715;27;45320;-77
2022/06/30 13:38:17;;;;;;;;;3.33;2.00;;;;;;;;5117276;27;45416;-78
2022/06/30 13:40:43;;;;;;;;;13.67;12.33;;;;;;;;5117018;27;45575;-75
2022/06/30 13:43:08;;;;;;;;;1.33;0.33;;;;;;;;5115788;27;45599;-78
2022/06/30 13:45:33;;;;;;;;;1.00;1.00;;;;;;;;5117217;27;45858;-78
2022/06/30 13:47:58;;;;;;;;;4.33;3.00;;;;;;;;5117386;27;45393;-78
2022/06/30 13:50:24;;;;;;;;;3.33;2.33;;;;;;;;5116782;27;46780;-78
2022/06/30 13:52:49;;;;;;;;;3.00;2.00;;;;;;;;5116849;27;45482;-75
2022/06/30 13:55:14;;;;;;;;;3.67;2.00;;;;;;;;5119941;27;45347;-75
2022/06/30 13:57:40;;;;;;;;;3.00;1.67;;;;;;;;5117958;27;45361;-76
2022/06/30 14:00:06;;;;;;;;;1.67;0.67;;;;;;;;5121301;27;45658;-74
2022/06/30 14:02:31;;;;;;;;;5.00;3.00;;;;;;;;5117260;27;45475;-76
2022/06/30 14:04:57;;;;;;;;;2.00;2.00;;;;;;;;5118463;27;45344;-76
2022/06/30 14:07:23;;;;;;;;;0.67;0.67;;;;;;;;5116546;27;45468;-75
2022/06/30 14:09:48;;;;;;;;;3.33;2.00;;;;;;;;5123939;27;45674;-76
2022/06/30 14:12:13;;;;;;;;;1.00;1.00;;;;;;;;5111068;27;45539;-76
2022/06/30 14:14:38;;;;;;;;;9.33;9.00;;;;;;;;5117578;27;46317;-76
2022/06/30 14:17:04;;;;;;;;;3.00;3.00;;;;;;;;5119358;27;45427;-75
2022/06/30 14:19:29;;;;;;;;;2.00;2.00;;;;;;;;5121390;27;46654;-76
2022/06/30 14:21:56;;;;;;;;;12.33;8.33;;;;;;;;5119627;27;45481;-77
2022/06/30 14:24:21;;;;;;;;;2.00;2.00;;;;;;;;5110645;27;45531;-77
2022/06/30 14:26:46;;;;;;;;;3.33;2.00;;;;;;;;5108899;27;45241;-77
2022/06/30 14:29:12;;;;;;;;;2.00;2.00;;;;;;;;5121334;27;45464;-78
2022/06/30 14:31:38;;;;;;;;;2.00;2.00;;;;;;;;5120604;27;45429;-77
2022/06/30 14:34:03;;;;;;;;;5.00;3.33;;;;;;;;5123484;27;46375;-77
2022/06/30 14:36:28;;;;;;;;;3.00;1.67;;;;;;;;5134176;27;45510;-78
2022/06/30 14:38:53;;;;;;;;;4.67;4.67;;;;;;;;5120452;27;46754;-78
2022/06/30 14:44:03;;;;;;;;;2.33;1.67;;;;;;;;5113483;27;45591;-79
2022/06/30 14:46:28;;;;;;;;;12.33;11.00;;;;;;;;5114835;27;45285;-80
2022/06/30 14:48:53;;;;;;;;;2.33;2.00;;;;;;;;5106907;27;46430;-80
2022/06/30 14:51:18;;;;;;;;;4.00;3.00;;;;;;;;5120774;27;45547;-80
2022/06/30 14:53:44;;;;;;;;;2.33;2.33;;;;;;;;5116792;27;45476;-79